Time;durP1;ratioP1;P1;durP2;ratioP2;P2;SDS_P1;SDS_P2;PMS_P1;PMS_P2;Temp;Humidity;BMP_temperature;BMP_pressure;BME280_temperature;BME280_humidity;BME280_pressure;Samples;Min_cycle;Max_cycle;Signal;HPM_P1;HPM_P2
2022/08/22 00:01:28;;;;;;;14.07;7.85;;;;;;;13.97;100.00;101517.13;5114804;28;20028;-43
2022/08/22 00:04:09;;;;;;;12.07;6.85;;;;;;;13.97;100.00;101511.06;5116201;28;20034;-46
2022/08/22 00:06:42;;;;;;;10.23;6.63;;;;;;;14.00;100.00;101505.97;5116093;28;20032;-43
2022/08/22 00:09:28;;;;;;;10.52;7.60;;;;;;;14.03;100.00;101508.63;5115766;27;20035;-45
2022/08/22 00:12:28;;;;;;;10.15;6.80;;;;;;;14.08;100.00;101514.81;5116412;28;20107;-44
2022/08/22 00:15:06;;;;;;;11.30;6.97;;;;;;;14.04;100.00;101510.38;5115663;28;20035;-43
2022/08/22 00:17:40;;;;;;;10.65;6.50;;;;;;;13.97;100.00;101506.75;5115571;28;20035;-45
2022/08/22 00:20:20;;;;;;;8.05;6.30;;;;;;;13.98;100.00;101518.00;5116039;28;20031;-43
2022/08/22 00:22:57;;;;;;;10.18;7.18;;;;;;;14.00;100.00;101511.16;5115431;28;20027;-42
2022/08/22 00:25:42;;;;;;;11.35;7.25;;;;;;;14.02;100.00;101506.88;5115525;28;20028;-42
2022/08/22 00:28:14;;;;;;;14.55;7.78;;;;;;;13.93;100.00;101514.41;5115882;28;20032;-44
2022/08/22 00:31:06;;;;;;;12.98;7.80;;;;;;;14.02;100.00;101517.25;5114955;27;20395;-44
2022/08/22 00:33:55;;;;;;;11.70;7.60;;;;;;;14.04;100.00;101514.69;5115534;27;20028;-44
2022/08/22 00:36:52;;;;;;;13.07;8.35;;;;;;;14.05;100.00;101514.72;5114899;28;20051;-43
2022/08/22 00:39:27;;;;;;;10.85;7.95;;;;;;;14.02;100.00;101518.94;5101731;28;20036;-42
2022/08/22 00:42:14;;;;;;;11.00;8.05;;;;;;;14.04;100.00;101510.38;5115764;28;20023;-44
2022/08/22 00:44:45;;;;;;;13.48;8.10;;;;;;;14.01;100.00;101510.31;5114688;28;20038;-44
2022/08/22 00:47:48;;;;;;;15.68;8.60;;;;;;;14.05;100.00;101514.72;5115118;28;20034;-41
2022/08/22 00:50:43;;;;;;;15.18;8.55;;;;;;;14.09;100.00;101511.38;5114890;28;20031;-43
2022/08/22 00:53:48;;;;;;;13.02;8.75;;;;;;;14.13;100.00;101514.94;5115363;28;20106;-41
2022/08/22 00:56:37;;;;;;;15.30;8.63;;;;;;;14.10;100.00;101518.31;5115193;28;20432;-42
2022/08/22 00:59:16;;;;;;;13.65;8.93;;;;;;;14.12;100.00;101511.44;5114816;28;20031;-41
2022/08/22 01:02:20;;;;;;;11.10;8.70;;;;;;;14.14;100.00;101520.16;5114933;28;20031;-43
2022/08/22 01:05:16;;;;;;;14.88;8.23;;;;;;;14.16;100.00;101510.72;5114528;28;20114;-43
2022/08/22 01:07:56;;;;;;;11.02;8.30;;;;;;;14.18;100.00;101515.94;5114646;28;20036;-43
2022/08/22 01:10:30;;;;;;;13.55;8.25;;;;;;;14.14;100.00;101517.56;5114781;28;20478;-42
2022/08/22 01:13:21;;;;;;;11.50;7.72;;;;;;;14.20;100.00;101511.63;5114353;28;20027;-43
2022/08/22 01:15:54;;;;;;;13.20;8.40;;;;;;;14.25;100.00;101511.78;5114680;28;20020;-43
2022/08/22 01:18:43;;;;;;;11.63;8.18;;;;;;;14.28;100.00;101514.44;5114279;28;20058;-42
2022/08/22 01:21:35;;;;;;;10.13;7.13;;;;;;;14.28;100.00;101511.84;5114782;28;20031;-43
2022/08/22 01:25:16;;;;;;;12.23;8.02;;;;;;;14.32;100.00;101506.78;5114353;28;20042;-43
2022/08/22 01:27:54;;;;;;;16.05;8.90;;;;;;;14.34;100.00;101506.81;5113617;28;20039;-45
2022/08/22 01:31:07;;;;;;;13.23;8.15;;;;;;;14.34;100.00;101506.81;5114836;28;20118;-43
2022/08/22 01:34:06;;;;;;;15.68;9.15;;;;;;;14.33;100.00;101510.22;5113923;28;20032;-45
2022/08/22 01:36:56;;;;;;;12.65;9.10;;;;;;;14.29;100.00;101516.19;5113764;28;20216;-46
2022/08/22 01:40:00;;;;;;;15.00;8.85;;;;;;;14.27;100.00;101499.72;5113768;28;20026;-43
2022/08/22 01:43:03;;;;;;;12.23;9.07;;;;;;;14.25;100.00;101506.59;5113746;28;20334;-42
2022/08/22 01:45:46;;;;;;;13.82;8.55;;;;;;;14.15;100.00;101506.34;5113882;28;20027;-45
2022/08/22 01:48:18;;;;;;;11.65;9.07;;;;;;;14.13;100.00;101501.97;5113884;28;20027;-43
2022/08/22 01:51:00;;;;;;;16.35;10.57;;;;;;;14.19;100.00;101503.81;5114094;28;20024;-43
2022/08/22 01:53:42;;;;;;;17.08;11.65;;;;;;;14.22;100.00;101498.75;5113423;28;20111;-42
2022/08/22 01:56:14;;;;;;;17.88;11.32;;;;;;;14.24;100.00;101492.75;5114077;28;20027;-43
2022/08/22 01:59:05;;;;;;;17.50;11.75;;;;;;;14.29;100.00;101498.03;5114038;28;20027;-45
2022/08/22 02:01:35;;;;;;;16.25;11.50;;;;;;;14.28;100.00;101497.16;5113281;28;20019;-43
2022/08/22 02:04:32;;;;;;;18.38;11.07;;;;;;;14.34;100.00;101501.63;5113856;27;20028;-42
2022/08/22 02:07:06;;;;;;;20.02;11.65;;;;;;;14.37;100.00;101501.72;5114119;28;20057;-45
2022/08/22 02:09:41;;;;;;;16.65;12.07;;;;;;;14.39;100.00;101494.81;5112893;28;20039;-42
2022/08/22 02:12:09;;;;;;;16.67;11.82;;;;;;;14.42;100.00;101491.44;5113862;28;20019;-44
2022/08/22 02:14:48;;;;;;;16.40;12.57;;;;;;;14.42;100.00;101500.09;5112928;28;20020;-42
2022/08/22 02:17:20;;;;;;;16.40;11.88;;;;;;;14.46;100.00;101501.94;5113506;27;20490;-43
2022/08/22 02:19:57;;;;;;;20.58;13.07;;;;;;;14.45;100.00;101500.16;5113567;28;20479;-42
2022/08/22 02:22:39;;;;;;;17.70;12.95;;;;;;;14.51;100.00;101496.84;5112701;28;20035;-42
2022/08/22 02:25:13;;;;;;;16.98;13.52;;;;;;;14.46;100.00;101501.94;5113366;28;20430;-42
2022/08/22 02:27:48;;;;;;;21.10;13.80;;;;;;;14.46;100.00;101498.44;5113590;28;20016;-41
2022/08/22 02:30:17;;;;;;;17.20;13.30;;;;;;;14.48;100.00;101494.19;5112987;28;20494;-45
2022/08/22 02:33:05;;;;;;;18.60;12.65;;;;;;;14.53;100.00;101496.91;5113085;28;20042;-43
2022/08/22 02:35:58;;;;;;;19.98;13.57;;;;;;;14.54;100.00;101490.84;5112827;28;20036;-43
2022/08/22 02:38:37;;;;;;;17.02;13.38;;;;;;;14.47;100.00;101487.22;5092842;28;20044;-43
2022/08/22 02:41:07;;;;;;;21.20;13.80;;;;;;;14.47;100.00;101495.00;5093130;28;20383;-42
2022/08/22 02:43:49;;;;;;;20.23;14.13;;;;;;;14.42;100.00;101484.56;5092335;28;20033;-41
2022/08/22 02:46:23;;;;;;;15.35;13.38;;;;;;;14.36;100.00;101492.16;5093110;28;20020;-42
2022/08/22 02:49:17;;;;;;;17.98;12.48;;;;;;;14.39;100.00;101489.63;5092858;28;20490;-46
2022/08/22 02:52:01;;;;;;;16.52;12.65;;;;;;;14.36;100.00;101486.09;5073910;28;20115;-44
2022/08/22 02:54:44;;;;;;;20.10;13.50;;;;;;;14.40;100.00;101490.53;5092883;28;20071;-43
2022/08/22 02:57:18;;;;;;;22.00;14.10;;;;;;;14.40;100.00;101491.41;5092292;28;20460;-43
2022/08/22 03:00:16;;;;;;;19.90;12.98;;;;;;;14.44;100.00;101488.03;5092363;28;20043;-43
2022/08/22 03:02:43;;;;;;;19.27;12.85;;;;;;;14.46;100.00;101488.97;5092615;28;20027;-43
2022/08/22 03:05:26;;;;;;;19.80;13.13;;;;;;;14.45;100.00;101484.59;5092534;28;20074;-44
2022/08/22 03:08:08;;;;;;;18.50;13.30;;;;;;;14.42;100.00;101481.06;5092887;28;20027;-47
2022/08/22 03:10:53;;;;;;;21.42;14.70;;;;;;;14.40;100.00;101485.34;5092705;28;20020;-42
2022/08/22 03:13:56;;;;;;;18.83;13.55;;;;;;;14.43;100.00;101486.28;5092764;28;20099;-43
2022/08/22 03:16:42;;;;;;;17.60;12.48;;;;;;;14.45;100.00;101492.38;5086137;28;20046;-45
2022/08/22 03:19:42;;;;;;;19.25;12.93;;;;;;;14.44;100.00;101482.84;5092211;28;20032;-46
2022/08/22 03:22:27;;;;;;;19.40;13.13;;;;;;;14.37;100.00;101483.56;5092923;28;20051;-45
2022/08/22 03:25:28;;;;;;;17.85;12.95;;;;;;;14.37;100.00;101480.06;5092325;28;20036;-42
2022/08/22 03:28:00;;;;;;;20.27;13.43;;;;;;;14.34;100.00;101475.69;5090762;28;20032;-44
2022/08/22 03:30:55;;;;;;;20.15;12.73;;;;;;;14.33;100.00;101469.63;5092619;28;20024;-41
2022/08/22 03:33:26;;;;;;;18.20;13.05;;;;;;;14.26;100.00;101466.84;5092006;28;20486;-45
2022/08/22 03:36:05;;;;;;;18.20;13.02;;;;;;;14.24;100.00;101469.41;5097082;28;20024;-43
2022/08/22 03:38:33;;;;;;;16.77;12.88;;;;;;;14.23;100.00;101461.59;5116835;28;20054;-42
2022/08/22 03:41:13;;;;;;;17.83;12.70;;;;;;;14.20;100.00;101461.53;5116125;28;20031;-46
2022/08/22 03:43:57;;;;;;;16.50;12.15;;;;;;;14.10;100.00;101463.00;5116524;28;20027;-43
2022/08/22 03:46:42;;;;;;;19.33;13.93;;;;;;;14.04;100.00;101457.69;5116075;28;20043;-44
2022/08/22 03:49:35;;;;;;;17.48;13.50;;;;;;;13.98;100.00;101463.56;5116647;28;20027;-43
2022/08/22 03:52:21;;;;;;;18.77;13.32;;;;;;;13.91;100.00;101465.13;5116643;28;20110;-41
2022/08/22 03:55:22;;;;;;;20.25;12.95;;;;;;;13.92;100.00;101456.53;5115527;28;20055;-44
2022/08/22 03:58:20;;;;;;;18.92;12.70;;;;;;;13.82;100.00;101460.59;5116104;28;20466;-42
2022/08/22 04:01:18;;;;;;;18.33;12.20;;;;;;;13.77;100.00;101467.34;5115566;28;20043;-42
2022/08/22 04:03:58;;;;;;;15.45;12.10;;;;;;;13.74;100.00;101453.47;5116077;28;20515;-43
2022/08/22 04:06:29;;;;;;;19.40;12.50;;;;;;;13.61;100.00;101449.69;5116152;28;20081;-44
2022/08/22 04:09:22;;;;;;;19.58;12.77;;;;;;;13.45;100.00;101453.53;5115562;28;20459;-42
2022/08/22 04:11:48;;;;;;;15.70;12.23;;;;;;;13.45;100.00;101449.25;5116406;28;20055;-42
2022/08/22 04:14:38;;;;;;;21.50;13.03;;;;;;;13.44;100.00;101455.28;5115527;28;20094;-43
2022/08/22 04:17:28;;;;;;;17.75;12.27;;;;;;;13.27;100.00;101456.47;5115791;28;20032;-42
2022/08/22 04:20:04;;;;;;;20.02;14.27;;;;;;;13.19;100.00;101456.25;5116199;27;20110;-41
2022/08/22 04:23:07;;;;;;;22.20;14.10;;;;;;;13.26;100.00;101463.38;5115298;28;20069;-42
2022/08/22 04:25:49;;;;;;;22.40;14.55;;;;;;;13.29;100.00;101465.16;5115584;28;20040;-41
2022/08/22 04:28:36;;;;;;;19.35;14.43;;;;;;;13.29;100.00;101467.75;5115448;28;20024;-42
2022/08/22 04:31:10;;;;;;;20.10;14.50;;;;;;;13.39;100.00;101467.22;5115699;28;20039;-41
2022/08/22 04:33:44;;;;;;;20.00;14.18;;;;;;;13.39;100.00;101480.16;5115556;28;20077;-44
2022/08/22 04:36:25;;;;;;;26.30;15.02;;;;;;;13.49;100.00;101474.41;5114848;28;20051;-42
2022/08/22 04:39:00;;;;;;;23.73;15.15;;;;;;;13.55;100.00;101475.41;5115575;28;20031;-46
2022/08/22 04:41:58;;;;;;;19.45;15.77;;;;;;;13.59;100.00;101472.06;5115379;28;20462;-42
2022/08/22 04:44:42;;;;;;;25.98;16.65;;;;;;;13.68;100.00;101468.84;5114520;28;20046;-44
2022/08/22 04:47:35;;;;;;;24.77;15.57;;;;;;;13.73;100.00;101470.72;5114970;28;20437;-42
2022/08/22 04:50:16;;;;;;;20.77;14.93;;;;;;;13.76;100.00;101476.00;5107230;28;20114;-44
2022/08/22 04:53:17;;;;;;;24.10;15.15;;;;;;;13.77;100.00;101482.03;5114904;28;20027;-42
2022/08/22 04:55:53;;;;;;;21.15;14.68;;;;;;;13.72;100.00;101478.44;5104006;28;20043;-45
2022/08/22 04:58:36;;;;;;;19.63;15.13;;;;;;;13.75;100.00;101478.50;5114491;28;20107;-45
2022/08/22 05:01:15;;;;;;;22.73;15.73;;;;;;;13.73;100.00;101483.66;5115223;28;20027;-45
2022/08/22 05:04:00;;;;;;;24.48;15.85;;;;;;;13.77;100.00;101488.09;5114539;28;20232;-43
2022/08/22 05:06:31;;;;;;;23.33;16.33;;;;;;;13.79;100.00;101494.19;5114853;28;20031;-43
2022/08/22 05:09:06;;;;;;;24.23;16.30;;;;;;;13.82;100.00;101491.66;5115178;28;20110;-43
2022/08/22 05:11:33;;;;;;;24.45;16.35;;;;;;;13.87;100.00;101489.22;5114202;28;20035;-42
2022/08/22 05:14:08;;;;;;;20.23;15.35;;;;;;;13.93;100.00;101498.84;5114963;28;20051;-45
2022/08/22 05:16:39;;;;;;;23.10;16.75;;;;;;;13.99;100.00;101493.84;5114814;27;20028;-45
2022/08/22 05:19:18;;;;;;;22.80;15.30;;;;;;;14.02;100.00;101488.75;5114270;28;20046;-41
2022/08/22 05:21:46;;;;;;;18.13;14.50;;;;;;;14.08;100.00;101488.88;5115105;28;20028;-45
2022/08/22 05:24:36;;;;;;;19.75;14.48;;;;;;;14.14;100.00;101494.22;5114703;28;20099;-47
2022/08/22 05:27:10;;;;;;;17.98;13.90;;;;;;;14.17;100.00;101498.63;5114381;28;20459;-44
2022/08/22 05:29:38;;;;;;;21.00;15.32;;;;;;;14.25;100.00;101493.63;5114504;28;20058;-46
2022/08/22 05:32:08;;;;;;;19.63;15.10;;;;;;;14.32;100.00;101498.13;5114259;28;20020;-41
2022/08/22 05:34:41;;;;;;;18.45;15.13;;;;;;;14.42;100.00;101502.69;5113991;28;20110;-44
2022/08/22 05:37:29;;;;;;;20.35;15.40;;;;;;;14.54;100.00;101509.00;5114275;28;20044;-42
2022/08/22 05:39:59;;;;;;;20.95;15.05;;;;;;;14.57;100.00;101507.38;5113537;28;20489;-46
2022/08/22 05:42:29;;;;;;;22.52;15.75;;;;;;;14.67;100.00;101516.28;5114263;28;20023;-46
2022/08/22 05:44:55;;;;;;;21.50;16.15;;;;;;;14.78;100.00;101512.22;5114326;28;20031;-42
2022/08/22 05:47:35;;;;;;;22.65;16.02;;;;;;;14.86;100.00;101516.69;5113571;28;20024;-43
2022/08/22 05:50:06;;;;;;;23.45;16.50;;;;;;;14.90;100.00;101508.13;5114421;27;20023;-44
2022/08/22 05:52:58;;;;;;;24.25;17.02;;;;;;;14.97;100.00;101516.09;5113488;28;20054;-42
2022/08/22 05:55:47;;;;;;;21.70;16.38;;;;;;;15.08;100.00;101518.03;5113877;28;20027;-42
2022/08/22 05:58:36;;;;;;;22.90;17.10;;;;;;;15.13;100.00;101509.53;5113170;28;20463;-43
2022/08/22 06:01:21;;;;;;;21.42;16.45;;;;;;;15.23;100.00;101505.38;5113344;28;20070;-46
2022/08/22 06:04:05;;;;;;;21.73;16.35;;;;;;;15.27;100.00;101504.63;5113617;28;20019;-44
2022/08/22 06:06:37;;;;;;;20.80;16.05;;;;;;;15.32;100.00;101502.13;5113327;28;20027;-42
2022/08/22 06:09:56;;;;;;;21.73;15.10;;;;;;;15.44;100.00;101510.16;5113838;28;20035;-42
2022/08/22 06:12:24;;;;;;;22.60;15.80;;;;;;;15.53;100.00;101504.28;5113802;28;20576;-42
2022/08/22 06:15:03;;;;;;;20.27;15.73;;;;;;;15.61;100.00;101504.44;5113284;28;20047;-43
2022/08/22 06:17:41;;;;;;;19.45;15.55;;;;;;;15.68;100.00;101506.28;5113533;28;20600;-41
2022/08/22 06:20:08;;;;;;;;;;;;;;;15.83;100.00;101510.06;5114177;28;20032;-45
2022/08/22 06:22:40;;;;;;;23.92;17.10;;;;;;;15.85;100.00;101503.16;5112552;28;20471;-42
2022/08/22 06:25:14;;;;;;;21.35;16.30;;;;;;;15.91;100.00;101513.69;5113870;28;20098;-43
2022/08/22 06:27:41;;;;;;;25.92;17.42;;;;;;;16.01;100.00;101510.41;5112902;28;20027;-48
2022/08/22 06:30:11;;;;;;;25.25;16.55;;;;;;;16.13;100.00;101514.94;5113709;28;20063;-46
2022/08/22 06:32:41;;;;;;;22.80;16.60;;;;;;;16.30;100.00;101523.03;5113284;28;20106;-44
2022/08/22 06:35:16;;;;;;;23.25;16.20;;;;;;;16.37;100.00;101511.88;5112952;28;20019;-46
2022/08/22 06:37:46;;;;;;;18.98;15.02;;;;;;;16.49;99.05;101516.41;5112840;28;20055;-46
2022/08/22 06:40:14;;;;;;;22.40;15.65;;;;;;;16.58;98.96;101518.28;5113680;28;20028;-44
2022/08/22 06:42:43;;;;;;;20.58;15.60;;;;;;;16.66;99.26;101521.00;5112625;28;20035;-47
2022/08/22 06:45:23;;;;;;;20.02;14.68;;;;;;;16.78;98.81;101518.56;5113101;28;20474;-44
2022/08/22 06:47:54;;;;;;;21.50;16.02;;;;;;;16.70;99.74;101523.66;5113401;28;20063;-46
2022/08/22 06:50:29;;;;;;;21.63;15.38;;;;;;;16.83;98.47;101523.84;5112535;28;20541;-46
2022/08/22 06:53:14;;;;;;;19.05;15.07;;;;;;;17.06;98.03;101527.66;5113613;28;20020;-47
2022/08/22 06:55:45;;;;;;;24.23;15.70;;;;;;;17.11;97.01;101520.78;5113047;28;20020;-42
2022/08/22 06:58:18;;;;;;;16.63;14.20;;;;;;;17.24;96.48;101526.19;5113248;28;20024;-47
2022/08/22 07:00:46;;;;;;;20.35;15.48;;;;;;;17.34;95.00;101534.97;5113132;28;20032;-44
2022/08/22 07:03:23;;;;;;;23.77;15.13;;;;;;;17.47;95.65;101538.59;5112796;28;20024;-42
2022/08/22 07:05:53;;;;;;;20.63;14.65;;;;;;;17.58;93.47;101537.00;5112813;28;20032;-45
2022/08/22 07:08:21;;;;;;;22.25;14.27;;;;;;;17.63;91.33;101542.28;5113131;28;20019;-44
2022/08/22 07:10:57;;;;;;;17.65;13.50;;;;;;;17.68;93.05;101540.59;5116216;28;20408;-46
2022/08/22 07:13:25;;;;;;;22.92;14.70;;;;;;;17.79;91.29;101541.56;5117183;28;20019;-45
2022/08/22 07:15:58;;;;;;;22.38;13.93;;;;;;;17.90;91.05;101539.09;5117393;28;20318;-44
2022/08/22 07:18:26;;;;;;;17.33;12.88;;;;;;;18.00;90.93;101537.47;5116406;28;20036;-45
2022/08/22 07:20:55;;;;;;;23.27;13.85;;;;;;;18.04;89.67;101541.88;5117145;28;20032;-42
2022/08/22 07:23:28;;;;;;;19.08;13.60;;;;;;;18.14;89.09;101537.63;5117328;28;20047;-45
2022/08/22 07:26:00;;;;;;;20.05;13.30;;;;;;;18.16;88.67;101536.75;5116359;28;20099;-44
2022/08/22 07:29:07;;;;;;;20.35;13.38;;;;;;;18.34;90.12;101533.44;5116932;28;20027;-42
2022/08/22 07:31:38;;;;;;;23.65;13.98;;;;;;;18.32;87.20;101535.19;5085869;28;20054;-43
2022/08/22 07:34:31;;;;;;;19.98;14.25;;;;;;;18.43;88.69;101541.34;5116816;28;20028;-44
2022/08/22 07:37:15;;;;;;;19.63;13.32;;;;;;;18.77;87.18;101540.72;5116478;28;20443;-46
2022/08/22 07:39:50;;;;;;;20.63;13.98;;;;;;;18.82;85.92;101533.78;5115611;28;20058;-43
2022/08/22 07:42:20;;;;;;;17.77;13.25;;;;;;;19.02;84.13;101530.47;5117025;28;20027;-44
2022/08/22 07:45:10;;;;;;;22.17;13.10;;;;;;;19.13;84.47;101522.69;5116818;28;20106;-44
2022/08/22 07:48:13;;;;;;;20.73;13.82;;;;;;;19.45;84.58;101522.81;5116236;28;20023;-45
2022/08/22 07:50:55;;;;;;;22.75;13.70;;;;;;;19.57;81.88;101519.38;5116415;28;20035;-42
2022/08/22 07:53:32;;;;;;;21.95;13.48;;;;;;;19.82;80.46;101524.69;5116239;28;20106;-42
2022/08/22 07:56:00;;;;;;;20.23;13.38;;;;;;;19.96;79.19;101517.75;5116561;28;20489;-45
2022/08/22 07:58:28;;;;;;;24.13;13.18;;;;;;;20.13;79.17;101522.09;5116141;28;20035;-43
2022/08/22 08:00:55;;;;;;;19.60;13.10;;;;;;;20.43;76.70;101523.00;5115732;27;20027;-43
2022/08/22 08:03:23;;;;;;;20.23;12.97;;;;;;;20.54;76.89;101518.63;5116595;28;20028;-42
2022/08/22 08:05:49;;;;;;;23.13;12.27;;;;;;;20.61;76.81;101512.50;5116242;28;20024;-42
2022/08/22 08:08:24;;;;;;;21.08;12.98;;;;;;;20.54;75.52;101516.88;5115630;28;20550;-47
2022/08/22 08:10:52;;;;;;;27.98;13.93;;;;;;;20.56;76.86;101509.88;5116167;28;20023;-44
2022/08/22 08:13:27;;;;;;;22.55;12.77;;;;;;;20.53;78.32;101509.03;5115782;28;20445;-45
2022/08/22 08:15:53;;;;;;;20.90;11.90;;;;;;;20.51;74.41;101505.53;5115989;28;20051;-46
2022/08/22 08:18:25;;;;;;;20.70;13.05;;;;;;;20.48;76.16;101505.56;5115933;28;20067;-47
2022/08/22 08:21:02;;;;;;;22.17;13.15;;;;;;;20.58;76.35;101499.44;5114443;28;20027;-45
2022/08/22 08:23:36;;;;;;;23.58;13.60;;;;;;;20.59;74.51;101503.78;5115426;28;20022;-44
2022/08/22 08:26:11;;;;;;;24.58;12.80;;;;;;;20.75;74.95;101495.91;5116150;28;20382;-44
2022/08/22 08:28:44;;;;;;;18.20;11.57;;;;;;;20.92;76.81;101495.91;5115021;28;20035;-46
2022/08/22 08:31:23;;;;;;;20.42;11.65;;;;;;;21.07;73.45;101494.94;5115885;28;20055;-44
2022/08/22 08:33:56;;;;;;;23.95;12.40;;;;;;;21.26;72.83;101491.38;5115486;28;20101;-44
2022/08/22 08:37:02;;;;;;;24.23;11.10;;;;;;;21.27;72.38;101495.75;5114862;28;20047;-46
2022/08/22 08:39:36;;;;;;;20.80;10.55;;;;;;;21.29;71.98;101494.00;5115525;28;20027;-47
2022/08/22 08:42:20;;;;;;;25.08;12.25;;;;;;;21.50;72.52;101500.88;5114957;28;20028;-47
2022/08/22 08:45:03;;;;;;;18.52;9.68;;;;;;;21.62;68.07;101497.34;5114586;28;20077;-46
2022/08/22 08:47:35;;;;;;;20.20;9.75;;;;;;;21.82;69.06;101502.47;5114286;27;20106;-47
2022/08/22 08:50:35;;;;;;;19.35;8.40;;;;;;;22.12;69.74;101504.88;5114492;28;20027;-42
2022/08/22 08:53:29;;;;;;;17.75;9.38;;;;;;;22.52;67.52;101499.31;5115439;28;20110;-45
2022/08/22 08:56:34;;;;;;;15.40;8.43;;;;;;;22.63;65.62;101494.81;5114628;28;20474;-44
2022/08/22 08:59:10;;;;;;;18.65;8.60;;;;;;;22.50;62.33;101498.44;5115538;28;20132;-43
2022/08/22 09:01:52;;;;;;;20.00;10.57;;;;;;;22.38;64.98;101494.19;5115079;28;20027;-45
2022/08/22 09:04:43;;;;;;;18.05;9.65;;;;;;;22.50;66.68;101490.56;5114505;28;20023;-47
2022/08/22 09:07:23;;;;;;;15.52;7.75;;;;;;;22.60;62.34;101492.22;5087168;28;20040;-45
2022/08/22 09:10:15;;;;;;;13.40;7.88;;;;;;;23.01;63.96;101488.25;5114390;28;20039;-47
2022/08/22 09:13:12;;;;;;;17.88;8.75;;;;;;;23.15;64.06;101492.50;5114480;28;20023;-46
2022/08/22 09:16:23;;;;;;;20.25;9.07;;;;;;;23.25;65.24;101486.22;5114621;28;20027;-47
2022/08/22 09:19:22;;;;;;;15.77;8.85;;;;;;;23.48;63.20;101482.41;5066125;28;20075;-45
2022/08/22 09:22:23;;;;;;;16.88;9.23;;;;;;;23.46;62.19;101479.81;5114452;28;20026;-46
2022/08/22 09:25:14;;;;;;;15.55;10.05;;;;;;;23.40;61.19;101482.53;5113809;28;20042;-47
2022/08/22 09:27:55;;;;;;;20.17;10.65;;;;;;;23.09;58.75;101487.31;5114488;28;20028;-46
2022/08/22 09:30:24;;;;;;;21.17;10.45;;;;;;;23.35;59.86;101479.94;5114913;28;20034;-42
2022/08/22 09:33:01;;;;;;;18.85;10.30;;;;;;;23.43;59.64;101476.34;5113930;28;20023;-46
2022/08/22 09:35:38;;;;;;;19.77;9.77;;;;;;;23.45;60.48;101477.22;5114554;28;20056;-43
2022/08/22 09:38:21;;;;;;;;;;;;;;;23.81;61.54;101485.47;5114323;28;20073;-43
2022/08/22 09:41:08;;;;;;;17.45;10.75;;;;;;;23.35;58.97;101486.97;5114191;28;19915;-46
2022/08/22 09:43:39;;;;;;;24.15;10.73;;;;;;;23.76;58.95;101482.88;5114301;28;20032;-41
2022/08/22 09:46:10;;;;;;;23.60;9.93;;;;;;;23.98;58.08;101483.44;5113522;28;20445;-46
2022/08/22 09:48:44;;;;;;;19.63;9.25;;;;;;;24.13;56.65;101481.44;5114073;28;20023;-44
2022/08/22 09:51:40;;;;;;;22.77;8.88;;;;;;;24.16;57.32;101476.16;5114412;28;20027;-46
2022/08/22 09:54:31;;;;;;;18.57;8.00;;;;;;;24.10;56.44;101477.09;5114147;28;20023;-45
2022/08/22 09:57:18;;;;;;;13.82;6.30;;;;;;;24.37;56.75;101474.03;5113967;28;20077;-42
2022/08/22 10:00:21;;;;;;;13.25;4.47;;;;;;;24.56;52.94;101475.41;5113083;28;20027;-46
2022/08/22 10:03:02;;;;;;;13.32;4.45;;;;;;;24.81;51.51;101480.25;5113716;28;20398;-46
2022/08/22 10:05:44;;;;;;;14.73;4.63;;;;;;;24.61;52.62;101473.56;5113823;28;20031;-46
2022/08/22 10:08:47;;;;;;;13.07;4.60;;;;;;;24.76;53.69;101468.91;5113884;28;20024;-46
2022/08/22 10:11:20;;;;;;;13.95;4.88;;;;;;;24.90;48.62;101474.78;5104179;28;20036;-45
2022/08/22 10:13:58;;;;;;;12.50;5.13;;;;;;;24.85;49.88;101468.72;5112842;28;20020;-47
2022/08/22 10:16:53;;;;;;;11.05;4.95;;;;;;;25.26;49.44;101467.00;5114025;28;20271;-47
2022/08/22 10:19:24;;;;;;;16.63;4.57;;;;;;;25.72;47.01;101464.22;5086686;28;20042;-47
2022/08/22 10:22:18;;;;;;;12.40;5.05;;;;;;;25.89;49.46;101458.56;5112666;28;20764;-46
2022/08/22 10:25:06;;;;;;;12.60;4.97;;;;;;;26.40;46.08;101458.16;5113606;28;20031;-47
2022/08/22 10:28:01;;;;;;;12.77;4.93;;;;;;;27.18;45.97;101455.94;5112964;28;20031;-45
2022/08/22 10:30:34;;;;;;;16.88;4.95;;;;;;;27.32;45.32;101448.47;5113370;28;20107;-42
2022/08/22 10:33:27;;;;;;;12.80;5.90;;;;;;;27.64;45.13;101453.69;5113644;28;20103;-46
2022/08/22 10:36:08;;;;;;;11.25;4.82;;;;;;;27.73;45.12;101456.91;5112501;28;20020;-46
2022/08/22 10:38:41;;;;;;;11.27;4.53;;;;;;;28.10;42.62;101454.81;5113177;28;20042;-46
2022/08/22 10:41:29;;;;;;;11.70;3.92;;;;;;;28.32;44.37;101452.28;5113135;28;20096;-46
2022/08/22 10:44:20;;;;;;;11.73;4.30;;;;;;;27.81;43.37;101450.47;5112893;28;20067;-46
2022/08/22 10:47:04;;;;;;;9.60;4.45;;;;;;;28.34;43.07;101444.28;5113101;28;20420;-46
2022/08/22 10:49:34;;;;;;;13.43;4.90;;;;;;;28.83;40.36;101441.63;5112388;28;20466;-48
2022/08/22 10:52:09;;;;;;;13.80;4.30;;;;;;;29.22;38.87;101436.59;5113379;28;20504;-47
2022/08/22 10:54:59;;;;;;;15.90;4.20;;;;;;;29.30;42.06;101435.47;5113239;28;20043;-45
2022/08/22 10:57:49;;;;;;;10.82;3.97;;;;;;;29.17;41.38;101435.91;5112992;28;20051;-47
2022/08/22 11:00:40;;;;;;;15.07;3.72;;;;;;;29.88;39.28;101438.41;5113450;28;20024;-46
2022/08/22 11:03:21;;;;;;;10.18;4.25;;;;;;;29.76;39.86;101444.22;5112568;28;20024;-46
2022/08/22 11:05:48;;;;;;;9.95;3.30;;;;;;;30.46;35.54;101434.13;5112919;28;20096;-47
2022/08/22 11:08:42;;;;;;;12.88;3.60;;;;;;;30.86;36.90;101432.31;5113088;28;20426;-48
2022/08/22 11:11:27;;;;;;;10.35;3.47;;;;;;;30.79;33.94;101435.34;5112560;28;20020;-46
2022/08/22 11:14:17;;;;;;;12.13;3.22;;;;;;;30.80;35.57;101434.41;5112999;28;20411;-47
2022/08/22 11:17:13;;;;;;;10.68;3.30;;;;;;;31.18;35.11;101427.31;5112189;28;20110;-48
2022/08/22 11:20:05;;;;;;;;;;;;;;;31.65;36.70;101435.75;5113290;28;20108;-47
2022/08/22 11:23:09;;;;;;;9.18;3.13;;;;;;;31.10;35.01;101431.28;5103768;28;20002;-47
2022/08/22 11:26:01;;;;;;;8.07;3.28;;;;;;;30.30;35.65;101433.06;5112701;28;20044;-47
2022/08/22 11:28:43;;;;;;;11.90;3.15;;;;;;;29.32;34.08;101428.28;5112921;28;20097;-42
2022/08/22 11:31:20;;;;;;;10.05;2.80;;;;;;;28.75;34.37;101428.66;5112353;28;20027;-44
2022/08/22 11:33:58;;;;;;;12.13;2.90;;;;;;;28.19;36.59;101430.66;5112975;28;20031;-46
2022/08/22 11:36:33;;;;;;;9.65;2.95;;;;;;;27.92;36.37;101412.09;5112698;28;20493;-44
2022/08/22 11:39:23;;;;;;;11.50;3.03;;;;;;;27.90;38.19;101413.97;5111987;28;20035;-47
2022/08/22 11:41:57;;;;;;;7.60;2.45;;;;;;;27.81;37.38;101418.69;5112639;28;20438;-45
2022/08/22 11:44:53;;;;;;;9.40;2.75;;;;;;;28.28;37.96;101410.91;5112499;28;20035;-46
2022/08/22 11:47:22;;;;;;;9.73;2.33;;;;;;;28.19;35.82;101420.06;5112825;28;20023;-46
2022/08/22 11:50:05;;;;;;;8.45;2.20;;;;;;;28.35;38.58;101408.91;5112414;28;20032;-45
2022/08/22 11:52:51;;;;;;;10.57;3.20;;;;;;;28.35;39.25;101411.56;5111838;28;20020;-47
2022/08/22 11:55:26;;;;;;;7.13;2.58;;;;;;;27.98;38.69;101412.81;5112909;28;20016;-47
2022/08/22 11:57:53;;;;;;;12.60;3.28;;;;;;;27.83;35.61;101407.13;5116262;28;20475;-47
2022/08/22 12:00:40;;;;;;;10.90;2.92;;;;;;;27.96;36.26;101407.56;5115780;28;20023;-46
2022/08/22 12:03:24;;;;;;;10.57;2.83;;;;;;;28.23;38.23;101404.91;5116473;28;20027;-45
2022/08/22 12:06:04;;;;;;;8.50;2.15;;;;;;;28.32;38.25;101406.38;5115135;28;20395;-47
2022/08/22 12:08:32;;;;;;;10.73;2.47;;;;;;;27.85;36.66;101407.94;5116028;28;20470;-46
2022/08/22 12:11:18;;;;;;;13.43;3.03;;;;;;;27.46;37.77;101405.69;5116020;28;20522;-44
2022/08/22 12:13:54;;;;;;;10.55;2.53;;;;;;;27.67;37.45;101405.91;5115213;28;20024;-46
2022/08/22 12:16:49;;;;;;;10.00;2.75;;;;;;;27.67;38.18;101406.78;5116203;28;20024;-45